Buoy 41503

sailwx.info

Track history (hours):
 
Tides and Currents Weather Stations Pressure Air Temp Water Temp Dewpoint Dewpoint Depression Visibility Wind Speed Wind Dir Waves Ship Positions

Drifting buoy 41503

Last reported at 2014-Dec-18 06:39 UTC. Time now 2014-Dec-18 08:35 UTC.
Position N 34°26' W 061°21'.

Water temperature 22.4 ° C

Date/timePositionNaut miles runAvg speedWind from/ knotsBaromVisibWave heightAir tempDewpointWater temp
2014-Dec-18 06:39N 34°26' W 061°21'0 0.0 22.4
2014-Dec-18 06:31N 34°26' W 061°21'0 0.0 22.4
2014-Dec-18 06:28N 34°26' W 061°21'0 0.0 22.4
2014-Dec-18 04:55N 34°26' W 061°21'333.2 22.5
2014-Dec-18 04:50N 34°24' W 061°20'0 0.0 22.5
2014-Dec-18 03:05N 34°24' W 061°20'114.6 22.5
2014-Dec-18 03:00N 34°22' W 061°19'0 0.0 22.5
2014-Dec-18 02:17N 34°22' W 061°19'1 1.0 22.5
2014-Dec-18 01:28N 34°22' W 061°19'0 0.0 22.5
2014-Dec-18 01:25N 34°22' W 061°19'0 4.6 22.5
2014-Dec-18 01:19N 34°22' W 061°19'1 2.2 22.5
2014-Dec-18 00:40N 34°20' W 061°19'116.9 22.5
2014-Dec-18 00:37N 34°19' W 061°19'0 0.0 22.5
2014-Dec-17 23:47N 34°19' W 061°19'0 2.2 22.5
2014-Dec-17 23:40N 34°20' W 061°19'1 3.1 22.5
2014-Dec-17 23:27N 34°19' W 061°18'1 0.9 22.5
2014-Dec-17 22:41N 34°18' W 061°18'0 5.1 22.5
2014-Dec-17 22:36N 34°18' W 061°18'2 1.9 22.5
2014-Dec-17 21:41N 34°16' W 061°18'0 1.7 22.5
2014-Dec-17 21:37N 34°16' W 061°18'3 4.9 22.5
2014-Dec-17 21:03N 34°14' W 061°19'0 0.0 22.5
2014-Dec-17 20:00N 34°14' W 061°19'1 8.3 22.5
2014-Dec-17 19:50N 34°12' W 061°19'0 0.0 22.5
2014-Dec-17 19:21N 34°12' W 061°19'126.2 22.5
2014-Dec-17 19:18N 34°11' W 061°18'0 0.1 22.5
2014-Dec-17 18:17N 34°11' W 061°18'0 4.1 22.5
2014-Dec-17 18:14N 34°11' W 061°18'2135.3 22.5
2014-Dec-17 18:13N 34°09' W 061°19'0 0.0 22.5
2014-Dec-17 16:34N 34°09' W 061°19'2 2.6 22.5
2014-Dec-17 15:47N 34°07' W 061°18'0 0.3 22.5
2014-Dec-17 14:54N 34°07' W 061°18'137.8 22.5
2014-Dec-17 14:52N 34°06' W 061°18'0 0.0 22.5
2014-Dec-17 14:09N 34°06' W 061°18'1 1.2 22.5
2014-Dec-17 13:14N 34°05' W 061°20'122.1 22.5
2014-Dec-17 13:10N 34°04' W 061°19'0 0.0
2014-Dec-17 12:24N 34°04' W 061°19'0 9.3
2014-Dec-17 12:23N 34°04' W 061°19'115.0 22.5
2014-Dec-17 12:19N 34°03' W 061°20'0 0.0 22.5
2014-Dec-17 11:22N 34°03' W 061°20'1 2.8 22.5
2014-Dec-17 11:09N 34°02' W 061°20'1 1.3 22.5
2014-Dec-17 10:18N 34°01' W 061°21'0 2.1 22.5
2014-Dec-17 10:12N 34°01' W 061°20'0 9.1 22.5
2014-Dec-17 10:10N 34°01' W 061°20'1 1.7 22.5
2014-Dec-17 09:40N 34°01' W 061°21'124.1 22.5
2014-Dec-17 09:37N 33°60' W 061°21'0 0.0 22.5
2014-Dec-17 09:34N 33°60' W 061°21'172.4 22.5
2014-Dec-17 09:33N 34°01' W 061°21'1 1.2 22.5
2014-Dec-17 08:33N 33°60' W 061°21'112.3 22.5
2014-Dec-17 08:28N 33°59' W 061°22'0 0.0 22.5
2014-Dec-17 08:23N 33°59' W 061°22'0 0.0 22.5
2014-Dec-17 07:59N 33°59' W 061°22'0 0.0 22.5
2014-Dec-17 07:49N 33°59' W 061°22'1 1.2 22.5
2014-Dec-17 06:51N 33°58' W 061°23'2 8.7 22.5
2014-Dec-17 06:40N 33°57' W 061°24'0 0.0 22.5
2014-Dec-17 05:08N 33°57' W 061°24'4 1.5 22.5
2014-Dec-17 02:38N 33°55' W 061°28'0 0.0 22.5
2014-Dec-17 01:48N 33°55' W 061°28'0 0.4 22.5
2014-Dec-17 01:41N 33°55' W 061°28'2146.3 22.5
2014-Dec-17 01:40N 33°54' W 061°31'0 0.0 22.5
2014-Dec-17 01:00N 33°54' W 061°31'0 0.0 22.5
2014-Dec-17 00:54N 33°54' W 061°31'0 0.2 22.5
2014-Dec-17 00:07N 33°54' W 061°31'0 0.9 22.5
2014-Dec-16 23:55N 33°54' W 061°31'2 3.4 22.5
2014-Dec-16 23:15N 33°53' W 061°33'0 0.0 22.5
2014-Dec-16 22:59N 33°53' W 061°33'0 0.0 22.5
2014-Dec-16 22:20N 33°53' W 061°33'1 2.4 22.5
2014-Dec-16 21:51N 33°52' W 061°34'0 0.0 22.5
2014-Dec-16 21:27N 33°52' W 061°34'247.1 22.5
2014-Dec-16 21:24N 33°51' W 061°37'0 0.0 22.5
2014-Dec-16 20:12N 33°51' W 061°37'1 1.3 22.5
2014-Dec-16 19:47N 33°51' W 061°36'2 1.6 22.5
2014-Dec-16 18:30N 33°51' W 061°39'342.8 22.5
2014-Dec-16 18:26N 33°51' W 061°42'0 0.0 22.5
2014-Dec-16 18:17N 33°51' W 061°42'30 1.6 22.5
2014-Dec-15 23:38N 34°08' W 062°13'0 0.0
2014-Dec-15 22:50N 34°08' W 062°13'2 2.6 22.6
2014-Dec-15 22:03N 34°10' W 062°14'1 4.5 22.6
2014-Dec-15 21:55N 34°10' W 062°14'0 0.0 22.6
2014-Dec-15 21:52N 34°10' W 062°14'314.2 22.6
2014-Dec-15 21:41N 34°13' W 062°15'0 0.0 22.6
2014-Dec-15 20:24N 34°13' W 062°15'1 2.6 22.6
2014-Dec-15 20:10N 34°13' W 062°15'221.0 22.6
2014-Dec-15 20:03N 34°16' W 062°16'0 0.0
2014-Dec-15 18:41N 34°16' W 062°16'0 6.0 22.6
2014-Dec-15 18:36N 34°16' W 062°16'0 0.0 22.6
2014-Dec-15 18:31N 34°16' W 062°16'3 1.9 22.6
2014-Dec-15 16:54N 34°19' W 062°16'2 1.5 22.6
2014-Dec-15 15:38N 34°20' W 062°17'1 1.5 22.6
2014-Dec-15 14:50N 34°22' W 062°17'1 1.6 22.6
2014-Dec-15 14:02N 34°23' W 062°17'536.6 22.6
2014-Dec-15 13:53N 34°28' W 062°16'0 0.0 22.6
2014-Dec-15 10:39N 34°28' W 062°16'0 7.4 22.6
2014-Dec-15 10:35N 34°28' W 062°17'0 0.0 22.6
2014-Dec-15 10:32N 34°28' W 062°17'338.9 22.6
2014-Dec-15 10:28N 34°31' W 062°16'0 0.3 22.6
2014-Dec-15 08:57N 34°31' W 062°16'0 0.0 22.6
2014-Dec-15 08:48N 34°31' W 062°16'270.0 22.6
2014-Dec-15 08:46N 34°32' W 062°14'0 0.0 22.6
2014-Dec-15 07:12N 34°32' W 062°14'214.4 22.7
2014-Dec-15 07:02N 34°35' W 062°14'0 0.0 22.7
2014-Dec-15 05:24N 34°35' W 062°14'3183.4 22.6
2014-Dec-15 05:23N 34°37' W 062°11'0 0.0 22.6
2014-Dec-15 02:29N 34°37' W 062°11'0 4.2 22.6
2014-Dec-15 02:22N 34°37' W 062°11'1 1.8 22.6
2014-Dec-15 01:41N 34°38' W 062°11'1 0.9 22.6
2014-Dec-15 00:49N 34°38' W 062°10'1 1.4 22.6
2014-Dec-15 00:00N 34°39' W 062°09'1 1.2 22.6
2014-Dec-14 23:22N 34°40' W 062°08'1 2.6 22.6
2014-Dec-14 23:08N 34°40' W 062°08'1 0.9 22.6
2014-Dec-14 22:14N 34°41' W 062°08'0 0.0 22.7
2014-Dec-14 22:11N 34°41' W 062°08'0 0.0 22.7
2014-Dec-14 21:40N 34°41' W 062°08'1 0.7 22.7
2014-Dec-14 20:36N 34°41' W 062°07'2 0.9 22.7
2014-Dec-14 18:54N 34°43' W 062°06'0 0.0 22.8
2014-Dec-14 18:51N 34°43' W 062°06'115.5 22.8
2014-Dec-14 18:48N 34°43' W 062°05'0 0.0 22.8
2014-Dec-14 18:40N 34°43' W 062°05'1 0.5 22.8
2014-Dec-14 17:08N 34°44' W 062°05'0 0.0 22.8
2014-Dec-14 17:06N 34°44' W 062°05'1 1.1 22.8
2014-Dec-14 15:58N 34°45' W 062°04'0 0.0 22.8
2014-Dec-14 15:21N 34°45' W 062°04'0 0.0 22.8
2014-Dec-14 15:10N 34°45' W 062°04'1 1.4 22.8
2014-Dec-14 14:22N 34°44' W 062°03'2 0.9 22.8
2014-Dec-14 12:33N 34°45' W 062°01'0 0.0 22.8
2014-Dec-14 11:05N 34°45' W 062°01'0 0.0 22.8
2014-Dec-14 10:54N 34°45' W 062°01'112.0 22.8
2014-Dec-14 10:51N 34°44' W 062°01'115.5 22.8
2014-Dec-14 10:48N 34°45' W 062°01'1 0.7 22.8
2014-Dec-14 09:24N 34°45' W 061°59'0 0.0 22.8
2014-Dec-14 09:09N 34°45' W 061°59'0 0.0
2014-Dec-14 09:07N 34°45' W 061°59'219.2 22.8
2014-Dec-14 09:02N 34°46' W 061°58'0 0.0 22.8
2014-Dec-14 08:59N 34°46' W 061°58'0 0.0 22.8
2014-Dec-14 07:44N 34°46' W 061°58'0 0.0 22.8
2014-Dec-14 07:27N 34°46' W 061°58'0 9.9 22.8
2014-Dec-14 07:24N 34°46' W 061°57'014.8 22.8
2014-Dec-14 07:22N 34°46' W 061°58'212.0 22.8
2014-Dec-14 07:14N 34°46' W 061°56'0 0.0 22.8
2014-Dec-14 05:39N 34°46' W 061°56'114.8 22.8
2014-Dec-14 05:35N 34°46' W 061°57'2 0.8 22.8
2014-Dec-14 02:49N 34°47' W 061°55'1 1.6 22.9
2014-Dec-14 02:01N 34°47' W 061°53'0 3.5 22.9
2014-Dec-14 01:54N 34°47' W 061°54'0 0.5 22.9
2014-Dec-14 01:11N 34°47' W 061°53'1 3.5 22.9
2014-Dec-14 01:01N 34°47' W 061°54'0 0.0 22.9
2014-Dec-14 00:20N 34°47' W 061°54'142.0 22.9
2014-Dec-14 00:19N 34°47' W 061°53'0 0.0 22.9
2014-Dec-13 23:50N 34°47' W 061°53'1 1.9 22.9
2014-Dec-13 23:29N 34°48' W 061°52'0 3.6 22.9
2014-Dec-13 23:24N 34°48' W 061°52'20 0.8 22.9
2014-Dec-12 23:50N 34°43' W 061°28'1 0.4 22.9
2014-Dec-12 21:26N 34°42' W 061°28'0 0.7 22.9
2014-Dec-12 20:54N 34°42' W 061°27'1 1.1 22.8
2014-Dec-12 19:46N 34°41' W 061°26'1 1.4 22.8
2014-Dec-12 19:16N 34°41' W 061°26'1 4.9 22.8
2014-Dec-12 19:09N 34°41' W 061°25'11 1.5 22.8
2014-Dec-12 11:38N 34°34' W 061°15'11 1.5 22.8
2014-Dec-12 04:19N 34°26' W 061°07'0 0.0 22.9
2014-Dec-12 02:39N 34°26' W 061°07'1 1.3 22.9
2014-Dec-12 01:52N 34°25' W 061°06'0 0.0 22.9
2014-Dec-12 01:49N 34°25' W 061°06'1 6.1 22.9
2014-Dec-12 01:43N 34°24' W 061°06'0 0.0 22.9
2014-Dec-12 01:04N 34°24' W 061°06'0 0.0 22.9
2014-Dec-12 01:02N 34°24' W 061°06'110.0 22.9
2014-Dec-12 00:54N 34°23' W 061°05'113.4 22.9
2014-Dec-12 00:48N 34°24' W 061°06'1 1.9 22.9
2014-Dec-12 00:11N 34°23' W 061°05'3 3.8 22.9
2014-Dec-11 23:22N 34°20' W 061°04'217.1 22.9
2014-Dec-11 23:16N 34°22' W 061°05'2 1.2 22.9
2014-Dec-11 21:50N 34°20' W 061°04'0 0.6 22.9
2014-Dec-11 21:35N 34°20' W 061°04'0 1.2 22.9
2014-Dec-11 21:10N 34°20' W 061°04'0 2.6 22.9
2014-Dec-11 21:03N 34°20' W 061°04'2 1.8 22.9
2014-Dec-11 20:09N 34°18' W 061°04'0 5.4 22.9
2014-Dec-11 20:05N 34°18' W 061°04'1 1.9 22.9
2014-Dec-11 19:28N 34°17' W 061°04'0 2.4 22.9
2014-Dec-11 19:19N 34°17' W 061°03'1 8.7 22.9
2014-Dec-11 19:15N 34°17' W 061°03'3 1.7 22.9
2014-Dec-11 17:39N 34°14' W 061°04'2 1.5 22.9
2014-Dec-11 15:58N 34°12' W 061°04'1 1.1 22.9
2014-Dec-11 15:24N 34°11' W 061°03'1 7.6 22.9
2014-Dec-11 15:14N 34°10' W 061°03'0 0.0 22.9
2014-Dec-11 14:33N 34°10' W 061°03'1 1.3 22.9
2014-Dec-11 13:39N 34°09' W 061°03'114.4 22.9
2014-Dec-11 13:34N 34°08' W 061°04'2 2.8 22.9
2014-Dec-11 12:44N 34°05' W 061°04'0 0.0 22.9
2014-Dec-11 12:40N 34°05' W 061°04'1 0.5 22.9
2014-Dec-11 11:21N 34°05' W 061°04'0 0.0 22.9
2014-Dec-11 11:18N 34°05' W 061°04'1 1.7 22.9
2014-Dec-11 10:54N 34°05' W 061°04'1 1.8 22.9
2014-Dec-11 10:32N 34°05' W 061°04'0 1.6 22.9
2014-Dec-11 10:25N 34°05' W 061°04'1 1.2 22.9
2014-Dec-11 09:40N 34°04' W 061°05'0 9.3 22.9
2014-Dec-11 09:37N 34°04' W 061°04'1 3.3 22.9
2014-Dec-11 09:20N 34°03' W 061°05'1 1.0 22.9
2014-Dec-11 08:48N 34°03' W 061°06'1 1.1 22.9
2014-Dec-11 07:59N 34°02' W 061°06'0 2.0 22.9
2014-Dec-11 07:51N 34°02' W 061°06'356.1 22.9
2014-Dec-11 07:48N 34°00' W 061°08'0 0.0 22.9
2014-Dec-11 07:38N 34°00' W 061°08'0 0.0 22.9
2014-Dec-11 06:16N 34°00' W 061°08'1 7.0 22.9
2014-Dec-11 06:10N 34°00' W 061°09'2 1.1 22.9
2014-Dec-11 04:32N 33°59' W 061°10'4 2.8 22.9
2014-Dec-11 02:58N 33°56' W 061°15'0 0.1 22.9
2014-Dec-11 02:08N 33°56' W 061°15'0 0.7 22.8
2014-Dec-11 02:04N 33°56' W 061°15'2 2.3 22.8
2014-Dec-11 01:24N 33°55' W 061°16'0 0.0 22.9
2014-Dec-11 01:21N 33°55' W 061°16'2 2.4 22.9
2014-Dec-11 00:32N 33°55' W 061°18'0 4.7 22.9
2014-Dec-11 00:27N 33°55' W 061°18'2 2.9 22.9
2014-Dec-10 23:46N 33°54' W 061°20'0 0.0 22.9
2014-Dec-10 23:43N 33°54' W 061°20'341.8 22.9
2014-Dec-10 23:39N 33°53' W 061°23'0 0.2 22.9
2014-Dec-10 22:09N 33°53' W 061°23'0 0.0 22.9
2014-Dec-10 22:07N 33°53' W 061°23'2 2.2 22.9
2014-Dec-10 21:19N 33°52' W 061°25'0 3.1 22.9
2014-Dec-10 21:15N 33°52' W 061°24'2 3.3 22.9
2014-Dec-10 20:35N 33°52' W 061°27'164.4 22.9
2014-Dec-10 20:34N 33°52' W 061°28'0 0.0 22.9
2014-Dec-10 19:38N 33°52' W 061°28'741.3 22.9
2014-Dec-10 19:28N 33°52' W 061°37'0 0.0 22.9
2014-Dec-10 18:52N 33°52' W 061°37'0 0.0 22.9
2014-Dec-10 17:53N 33°52' W 061°37'0 0.0 22.9
2014-Dec-10 17:52N 33°52' W 061°37'0 0.0 22.9
2014-Dec-10 16:10N 33°52' W 061°37'1 3.3 22.9
2014-Dec-10 15:43N 33°52' W 061°38'1 1.3 22.9
2014-Dec-10 14:54N 33°52' W 061°40'8 9.7 22.9
2014-Dec-10 14:05N 33°54' W 061°49'0 0.0 22.9
2014-Dec-10 13:53N 33°54' W 061°49'1 0.5
2014-Dec-10 10:53N 33°55' W 061°50'332.8 23.3
2014-Dec-10 10:48N 33°56' W 061°53'0 0.0 23.3
2014-Dec-10 09:53N 33°56' W 061°53'0 3.6 23.3
2014-Dec-10 09:52N 33°56' W 061°53'2 3.0 23.3
2014-Dec-10 09:16N 33°57' W 061°55'315.4 23.4
2014-Dec-10 09:06N 33°58' W 061°58'0 0.0 23.4
2014-Dec-10 08:13N 33°58' W 061°58'0 5.3 23.4
2014-Dec-10 08:08N 33°59' W 061°58'0 2.4 23.4
2014-Dec-10 08:04N 33°59' W 061°58'4 2.4 23.4
2014-Dec-10 06:26N 34°01' W 062°02'431.8 23.4
2014-Dec-10 06:19N 34°03' W 062°05'0 0.0 23.4
2014-Dec-10 06:16N 34°03' W 062°05'0 0.0 23.4
2014-Dec-10 04:44N 34°03' W 062°05'4 2.0 23.5
2014-Dec-10 02:31N 34°06' W 062°09'114.3 23.5
2014-Dec-10 02:25N 34°08' W 062°10'2 1.1 23.5
2014-Dec-10 00:53N 34°09' W 062°12'1 2.0 23.5
2014-Dec-10 00:15N 34°10' W 062°13'0 0.0 23.5
2014-Dec-10 00:04N 34°10' W 062°13'0 3.9 23.5
2014-Dec-10 00:02N 34°09' W 062°13'225.2 23.5
2014-Dec-09 23:57N 34°11' W 062°15'0 0.0 23.5
2014-Dec-09 23:10N 34°11' W 062°15'2 2.6 23.5
2014-Dec-09 22:34N 34°12' W 062°16'0 0.0 23.5
2014-Dec-09 21:32N 34°12' W 062°16'0 0.6 23.5
2014-Dec-09 21:26N 34°12' W 062°16'1 1.7 23.5
2014-Dec-09 21:00N 34°13' W 062°16'1 1.1 23.5
2014-Dec-09 19:52N 34°14' W 062°17'1 5.9 23.5
2014-Dec-09 19:39N 34°15' W 062°17'0 0.0 23.5
2014-Dec-09 19:19N 34°15' W 062°17'0 5.6 23.5
2014-Dec-09 19:16N 34°15' W 062°17'1 1.1 23.5
2014-Dec-09 18:08N 34°15' W 062°18'0 0.0 23.5
2014-Dec-09 18:02N 34°15' W 062°18'2 1.4 23.5
2014-Dec-09 16:22N 34°17' W 062°19'1 0.8 23.5
2014-Dec-09 15:14N 34°18' W 062°20'1 1.3 23.5
2014-Dec-09 14:23N 34°19' W 062°20'219.6 23.4
2014-Dec-09 14:16N 34°21' W 062°20'1 0.7 23.4
2014-Dec-09 12:38N 34°23' W 062°20'0 0.0 23.4
2014-Dec-09 11:21N 34°23' W 062°20'1 1.2 23.3
2014-Dec-09 10:23N 34°24' W 062°20'1 3.1 23.2
2014-Dec-09 10:08N 34°24' W 062°19'0 0.0 23.1
2014-Dec-09 10:04N 34°24' W 062°19'112.4 23.1
2014-Dec-09 09:59N 34°25' W 062°20'0 0.0 23.1
2014-Dec-09 09:39N 34°25' W 062°20'119.3 23.0
2014-Dec-09 09:35N 34°26' W 062°20'0 0.0 23.0
2014-Dec-09 09:32N 34°26' W 062°20'1 0.5 23.0
2014-Dec-09 08:23N 34°27' W 062°20'1 9.3 22.8
2014-Dec-09 08:19N 34°27' W 062°20'0 0.0 22.8
2014-Dec-09 08:16N 34°27' W 062°20'0 6.9 22.8
2014-Dec-09 08:12N 34°27' W 062°20'418.9 22.8
2014-Dec-09 07:59N 34°31' W 062°20'0 0.2 22.8
2014-Dec-09 06:38N 34°31' W 062°20'0 0.0 22.9
2014-Dec-09 06:28N 34°31' W 062°20'0 0.0 22.9
2014-Dec-09 04:53N 34°31' W 062°20'2 1.0 22.8
2014-Dec-09 02:51N 34°33' W 062°19'112.7 22.6
2014-Dec-09 02:46N 34°34' W 062°20'0 0.0 22.6
2014-Dec-09 02:06N 34°34' W 062°20'0 0.0 22.7
2014-Dec-09 02:02N 34°34' W 062°20'1 0.9 22.7
2014-Dec-09 01:14N 34°35' W 062°19'1 7.1 22.8
2014-Dec-09 01:04N 34°36' W 062°18'2 2.2
2014-Dec-09 00:23N 34°37' W 062°17'1 0.5 22.8
2014-Dec-08 21:37N 34°39' W 062°17'0 0.0 22.9
2014-Dec-08 21:28N 34°39' W 062°17'0 6.9 22.9
2014-Dec-08 21:24N 34°39' W 062°16'233.6 22.9
2014-Dec-08 21:21N 34°40' W 062°15'0 0.0 22.9
2014-Dec-08 20:03N 34°40' W 062°15'210.8 22.9
2014-Dec-08 19:52N 34°42' W 062°14'0 0.0 22.9
2014-Dec-08 19:34N 34°42' W 062°14'0 0.0 22.9
2014-Dec-08 18:20N 34°42' W 062°14'0 4.2 22.9
2014-Dec-08 18:14N 34°42' W 062°13'4 2.6 22.9
2014-Dec-08 16:32N 34°45' W 062°10'0 0.0 22.9
2014-Dec-08 15:34N 34°45' W 062°10'0 0.1 22.9
2014-Dec-08 14:46N 34°45' W 062°10'211.6 22.9
2014-Dec-08 14:38N 34°47' W 062°10'0 0.0 22.9
2014-Dec-08 13:52N 34°47' W 062°10'2 1.8 22.9
2014-Dec-08 13:00N 34°48' W 062°09'2 2.6 22.9
2014-Dec-08 12:06N 34°49' W 062°07'0 0.0 22.9
2014-Dec-08 11:43N 34°49' W 062°07'1 0.7 22.9
2014-Dec-08 10:52N 34°50' W 062°07'1 1.5 22.8
2014-Dec-08 10:18N 34°50' W 062°06'0 1.6 22.8
2014-Dec-08 10:15N 34°51' W 062°06'0 6.5 22.8
2014-Dec-08 10:11N 34°51' W 062°06'0 0.0 22.8
2014-Dec-08 10:07N 34°51' W 062°06'0 2.6 22.8
2014-Dec-08 10:00N 34°51' W 062°06'114.0 22.8
2014-Dec-08 09:56N 34°52' W 062°05'0 0.0 22.8
2014-Dec-08 09:14N 34°52' W 062°05'1 1.7 22.8
2014-Dec-08 08:33N 34°52' W 062°04'1 5.9 22.8
2014-Dec-08 08:23N 34°53' W 062°03'177.8 22.8
2014-Dec-08 08:22N 34°54' W 062°02'0 0.0 22.8
2014-Dec-08 06:49N 34°54' W 062°02'319.7 22.8
2014-Dec-08 06:41N 34°56' W 061°60'0 0.0 22.8
2014-Dec-08 06:39N 34°56' W 061°60'   22.8
Track history (hours):
 
Tides and Currents Weather Stations Pressure Air Temp Water Temp Dewpoint Dewpoint Depression Visibility Wind Speed Wind Dir Waves Ship Positions

Drifting buoy 41503

Last reported at 2014-Dec-18 06:39 UTC. Time now 2014-Dec-18 08:35 UTC.
Position N 34°26' W 061°21'.

Water temperature 22.4 ° C

Date/timePositionNaut miles runAvg speedWind from/ knotsBaromVisibWave heightAir tempDewpointWater temp
2014-Dec-18 06:39N 34°26' W 061°21'0 0.0 22.4
2014-Dec-18 06:31N 34°26' W 061°21'0 0.0 22.4
2014-Dec-18 06:28N 34°26' W 061°21'0 0.0 22.4
2014-Dec-18 04:55N 34°26' W 061°21'333.2 22.5
2014-Dec-18 04:50N 34°24' W 061°20'0 0.0 22.5
2014-Dec-18 03:05N 34°24' W 061°20'114.6 22.5
2014-Dec-18 03:00N 34°22' W 061°19'0 0.0 22.5
2014-Dec-18 02:17N 34°22' W 061°19'1 1.0 22.5
2014-Dec-18 01:28N 34°22' W 061°19'0 0.0 22.5
2014-Dec-18 01:25N 34°22' W 061°19'0 4.6 22.5
2014-Dec-18 01:19N 34°22' W 061°19'1 2.2 22.5
2014-Dec-18 00:40N 34°20' W 061°19'116.9 22.5
2014-Dec-18 00:37N 34°19' W 061°19'0 0.0 22.5
2014-Dec-17 23:47N 34°19' W 061°19'0 2.2 22.5
2014-Dec-17 23:40N 34°20' W 061°19'1 3.1 22.5
2014-Dec-17 23:27N 34°19' W 061°18'1 0.9 22.5
2014-Dec-17 22:41N 34°18' W 061°18'0 5.1 22.5
2014-Dec-17 22:36N 34°18' W 061°18'2 1.9 22.5
2014-Dec-17 21:41N 34°16' W 061°18'0 1.7 22.5
2014-Dec-17 21:37N 34°16' W 061°18'3 4.9 22.5
2014-Dec-17 21:03N 34°14' W 061°19'0 0.0 22.5
2014-Dec-17 20:00N 34°14' W 061°19'1 8.3 22.5
2014-Dec-17 19:50N 34°12' W 061°19'0 0.0 22.5
2014-Dec-17 19:21N 34°12' W 061°19'126.2 22.5
2014-Dec-17 19:18N 34°11' W 061°18'0 0.1 22.5
2014-Dec-17 18:17N 34°11' W 061°18'0 4.1 22.5
2014-Dec-17 18:14N 34°11' W 061°18'2135.3 22.5
2014-Dec-17 18:13N 34°09' W 061°19'0 0.0 22.5
2014-Dec-17 16:34N 34°09' W 061°19'2 2.6 22.5
2014-Dec-17 15:47N 34°07' W 061°18'0 0.3 22.5
2014-Dec-17 14:54N 34°07' W 061°18'137.8 22.5
2014-Dec-17 14:52N 34°06' W 061°18'0 0.0 22.5
2014-Dec-17 14:09N 34°06' W 061°18'1 1.2 22.5
2014-Dec-17 13:14N 34°05' W 061°20'122.1 22.5
2014-Dec-17 13:10N 34°04' W 061°19'0 0.0
2014-Dec-17 12:24N 34°04' W 061°19'0 9.3
2014-Dec-17 12:23N 34°04' W 061°19'115.0 22.5
2014-Dec-17 12:19N 34°03' W 061°20'0 0.0 22.5
2014-Dec-17 11:22N 34°03' W 061°20'1 2.8 22.5
2014-Dec-17 11:09N 34°02' W 061°20'1 1.3 22.5
2014-Dec-17 10:18N 34°01' W 061°21'0 2.1 22.5
2014-Dec-17 10:12N 34°01' W 061°20'0 9.1 22.5
2014-Dec-17 10:10N 34°01' W 061°20'1 1.7 22.5
2014-Dec-17 09:40N 34°01' W 061°21'124.1 22.5
2014-Dec-17 09:37N 33°60' W 061°21'0 0.0 22.5
2014-Dec-17 09:34N 33°60' W 061°21'172.4 22.5
2014-Dec-17 09:33N 34°01' W 061°21'1 1.2 22.5
2014-Dec-17 08:33N 33°60' W 061°21'112.3 22.5
2014-Dec-17 08:28N 33°59' W 061°22'0 0.0 22.5
2014-Dec-17 08:23N 33°59' W 061°22'0 0.0 22.5
2014-Dec-17 07:59N 33°59' W 061°22'0 0.0 22.5
2014-Dec-17 07:49N 33°59' W 061°22'1 1.2 22.5
2014-Dec-17 06:51N 33°58' W 061°23'2 8.7 22.5
2014-Dec-17 06:40N 33°57' W 061°24'0 0.0 22.5
2014-Dec-17 05:08N 33°57' W 061°24'4 1.5 22.5
2014-Dec-17 02:38N 33°55' W 061°28'0 0.0 22.5
2014-Dec-17 01:48N 33°55' W 061°28'0 0.4 22.5
2014-Dec-17 01:41N 33°55' W 061°28'2146.3 22.5
2014-Dec-17 01:40N 33°54' W 061°31'0 0.0 22.5
2014-Dec-17 01:00N 33°54' W 061°31'0 0.0 22.5
2014-Dec-17 00:54N 33°54' W 061°31'0 0.2 22.5
2014-Dec-17 00:07N 33°54' W 061°31'0 0.9 22.5
2014-Dec-16 23:55N 33°54' W 061°31'2 3.4 22.5
2014-Dec-16 23:15N 33°53' W 061°33'0 0.0 22.5
2014-Dec-16 22:59N 33°53' W 061°33'0 0.0 22.5
2014-Dec-16 22:20N 33°53' W 061°33'1 2.4 22.5
2014-Dec-16 21:51N 33°52' W 061°34'0 0.0 22.5
2014-Dec-16 21:27N 33°52' W 061°34'247.1 22.5
2014-Dec-16 21:24N 33°51' W 061°37'0 0.0 22.5
2014-Dec-16 20:12N 33°51' W 061°37'1 1.3 22.5
2014-Dec-16 19:47N 33°51' W 061°36'2 1.6 22.5
2014-Dec-16 18:30N 33°51' W 061°39'342.8 22.5
2014-Dec-16 18:26N 33°51' W 061°42'0 0.0 22.5
2014-Dec-16 18:17N 33°51' W 061°42'30 1.6 22.5
2014-Dec-15 23:38N 34°08' W 062°13'0 0.0
2014-Dec-15 22:50N 34°08' W 062°13'2 2.6 22.6
2014-Dec-15 22:03N 34°10' W 062°14'1 4.5 22.6
2014-Dec-15 21:55N 34°10' W 062°14'0 0.0 22.6
2014-Dec-15 21:52N 34°10' W 062°14'314.2 22.6
2014-Dec-15 21:41N 34°13' W 062°15'0 0.0 22.6
2014-Dec-15 20:24N 34°13' W 062°15'1 2.6 22.6
2014-Dec-15 20:10N 34°13' W 062°15'221.0 22.6
2014-Dec-15 20:03N 34°16' W 062°16'0 0.0
2014-Dec-15 18:41N 34°16' W 062°16'0 6.0 22.6
2014-Dec-15 18:36N 34°16' W 062°16'0 0.0 22.6
2014-Dec-15 18:31N 34°16' W 062°16'3 1.9 22.6
2014-Dec-15 16:54N 34°19' W 062°16'2 1.5 22.6
2014-Dec-15 15:38N 34°20' W 062°17'1 1.5 22.6
2014-Dec-15 14:50N 34°22' W 062°17'1 1.6 22.6
2014-Dec-15 14:02N 34°23' W 062°17'536.6 22.6
2014-Dec-15 13:53N 34°28' W 062°16'0 0.0 22.6
2014-Dec-15 10:39N 34°28' W 062°16'0 7.4 22.6
2014-Dec-15 10:35N 34°28' W 062°17'0 0.0 22.6
2014-Dec-15 10:32N 34°28' W 062°17'338.9 22.6
2014-Dec-15 10:28N 34°31' W 062°16'0 0.3 22.6
2014-Dec-15 08:57N 34°31' W 062°16'0 0.0 22.6
2014-Dec-15 08:48N 34°31' W 062°16'270.0 22.6
2014-Dec-15 08:46N 34°32' W 062°14'0 0.0 22.6
2014-Dec-15 07:12N 34°32' W 062°14'214.4 22.7
2014-Dec-15 07:02N 34°35' W 062°14'0 0.0 22.7
2014-Dec-15 05:24N 34°35' W 062°14'3183.4 22.6
2014-Dec-15 05:23N 34°37' W 062°11'0 0.0 22.6
2014-Dec-15 02:29N 34°37' W 062°11'0 4.2 22.6
2014-Dec-15 02:22N 34°37' W 062°11'1 1.8 22.6
2014-Dec-15 01:41N 34°38' W 062°11'1 0.9 22.6
2014-Dec-15 00:49N 34°38' W 062°10'1 1.4 22.6
2014-Dec-15 00:00N 34°39' W 062°09'1 1.2 22.6
2014-Dec-14 23:22N 34°40' W 062°08'1 2.6 22.6
2014-Dec-14 23:08N 34°40' W 062°08'1 0.9 22.6
2014-Dec-14 22:14N 34°41' W 062°08'0 0.0 22.7
2014-Dec-14 22:11N 34°41' W 062°08'0 0.0 22.7
2014-Dec-14 21:40N 34°41' W 062°08'1 0.7 22.7
2014-Dec-14 20:36N 34°41' W 062°07'2 0.9 22.7
2014-Dec-14 18:54N 34°43' W 062°06'0 0.0 22.8
2014-Dec-14 18:51N 34°43' W 062°06'115.5 22.8
2014-Dec-14 18:48N 34°43' W 062°05'0 0.0 22.8
2014-Dec-14 18:40N 34°43' W 062°05'1 0.5 22.8
2014-Dec-14 17:08N 34°44' W 062°05'0 0.0 22.8
2014-Dec-14 17:06N 34°44' W 062°05'1 1.1 22.8
2014-Dec-14 15:58N 34°45' W 062°04'0 0.0 22.8
2014-Dec-14 15:21N 34°45' W 062°04'0 0.0 22.8
2014-Dec-14 15:10N 34°45' W 062°04'1 1.4 22.8
2014-Dec-14 14:22N 34°44' W 062°03'2 0.9 22.8
2014-Dec-14 12:33N 34°45' W 062°01'0 0.0 22.8
2014-Dec-14 11:05N 34°45' W 062°01'0 0.0 22.8
2014-Dec-14 10:54N 34°45' W 062°01'112.0 22.8
2014-Dec-14 10:51N 34°44' W 062°01'115.5 22.8
2014-Dec-14 10:48N 34°45' W 062°01'1 0.7 22.8
2014-Dec-14 09:24N 34°45' W 061°59'0 0.0 22.8
2014-Dec-14 09:09N 34°45' W 061°59'0 0.0
2014-Dec-14 09:07N 34°45' W 061°59'219.2 22.8
2014-Dec-14 09:02N 34°46' W 061°58'0 0.0 22.8
2014-Dec-14 08:59N 34°46' W 061°58'0 0.0 22.8
2014-Dec-14 07:44N 34°46' W 061°58'0 0.0 22.8
2014-Dec-14 07:27N 34°46' W 061°58'0 9.9 22.8
2014-Dec-14 07:24N 34°46' W 061°57'014.8 22.8
2014-Dec-14 07:22N 34°46' W 061°58'212.0 22.8
2014-Dec-14 07:14N 34°46' W 061°56'0 0.0 22.8
2014-Dec-14 05:39N 34°46' W 061°56'114.8 22.8
2014-Dec-14 05:35N 34°46' W 061°57'2 0.8 22.8
2014-Dec-14 02:49N 34°47' W 061°55'1 1.6 22.9
2014-Dec-14 02:01N 34°47' W 061°53'0 3.5 22.9
2014-Dec-14 01:54N 34°47' W 061°54'0 0.5 22.9
2014-Dec-14 01:11N 34°47' W 061°53'1 3.5 22.9
2014-Dec-14 01:01N 34°47' W 061°54'0 0.0 22.9
2014-Dec-14 00:20N 34°47' W 061°54'142.0 22.9
2014-Dec-14 00:19N 34°47' W 061°53'0 0.0 22.9
2014-Dec-13 23:50N 34°47' W 061°53'1 1.9 22.9
2014-Dec-13 23:29N 34°48' W 061°52'0 3.6 22.9
2014-Dec-13 23:24N 34°48' W 061°52'20 0.8 22.9
2014-Dec-12 23:50N 34°43' W 061°28'1 0.4 22.9
2014-Dec-12 21:26N 34°42' W 061°28'0 0.7 22.9
2014-Dec-12 20:54N 34°42' W 061°27'1 1.1 22.8
2014-Dec-12 19:46N 34°41' W 061°26'1 1.4 22.8
2014-Dec-12 19:16N 34°41' W 061°26'1 4.9 22.8
2014-Dec-12 19:09N 34°41' W 061°25'11 1.5 22.8
2014-Dec-12 11:38N 34°34' W 061°15'11 1.5 22.8
2014-Dec-12 04:19N 34°26' W 061°07'0 0.0 22.9
2014-Dec-12 02:39N 34°26' W 061°07'1 1.3 22.9
2014-Dec-12 01:52N 34°25' W 061°06'0 0.0 22.9
2014-Dec-12 01:49N 34°25' W 061°06'1 6.1 22.9
2014-Dec-12 01:43N 34°24' W 061°06'0 0.0 22.9
2014-Dec-12 01:04N 34°24' W 061°06'0 0.0 22.9
2014-Dec-12 01:02N 34°24' W 061°06'110.0 22.9
2014-Dec-12 00:54N 34°23' W 061°05'113.4 22.9
2014-Dec-12 00:48N 34°24' W 061°06'1 1.9 22.9
2014-Dec-12 00:11N 34°23' W 061°05'3 3.8 22.9
2014-Dec-11 23:22N 34°20' W 061°04'217.1 22.9
2014-Dec-11 23:16N 34°22' W 061°05'2 1.2 22.9
2014-Dec-11 21:50N 34°20' W 061°04'0 0.6 22.9
2014-Dec-11 21:35N 34°20' W 061°04'0 1.2 22.9
2014-Dec-11 21:10N 34°20' W 061°04'0 2.6 22.9
2014-Dec-11 21:03N 34°20' W 061°04'2 1.8 22.9
2014-Dec-11 20:09N 34°18' W 061°04'0 5.4 22.9
2014-Dec-11 20:05N 34°18' W 061°04'1 1.9 22.9
2014-Dec-11 19:28N 34°17' W 061°04'0 2.4 22.9
2014-Dec-11 19:19N 34°17' W 061°03'1 8.7 22.9
2014-Dec-11 19:15N 34°17' W 061°03'3 1.7 22.9
2014-Dec-11 17:39N 34°14' W 061°04'2 1.5 22.9
2014-Dec-11 15:58N 34°12' W 061°04'1 1.1 22.9
2014-Dec-11 15:24N 34°11' W 061°03'1 7.6 22.9
2014-Dec-11 15:14N 34°10' W 061°03'0 0.0 22.9
2014-Dec-11 14:33N 34°10' W 061°03'1 1.3 22.9
2014-Dec-11 13:39N 34°09' W 061°03'114.4 22.9
2014-Dec-11 13:34N 34°08' W 061°04'2 2.8 22.9
2014-Dec-11 12:44N 34°05' W 061°04'0 0.0 22.9
2014-Dec-11 12:40N 34°05' W 061°04'1 0.5 22.9
2014-Dec-11 11:21N 34°05' W 061°04'0 0.0 22.9
2014-Dec-11 11:18N 34°05' W 061°04'1 1.7 22.9
2014-Dec-11 10:54N 34°05' W 061°04'1 1.8 22.9
2014-Dec-11 10:32N 34°05' W 061°04'0 1.6 22.9
2014-Dec-11 10:25N 34°05' W 061°04'1 1.2 22.9
2014-Dec-11 09:40N 34°04' W 061°05'0 9.3 22.9
2014-Dec-11 09:37N 34°04' W 061°04'1 3.3 22.9
2014-Dec-11 09:20N 34°03' W 061°05'1 1.0 22.9
2014-Dec-11 08:48N 34°03' W 061°06'1 1.1 22.9
2014-Dec-11 07:59N 34°02' W 061°06'0 2.0 22.9
2014-Dec-11 07:51N 34°02' W 061°06'356.1 22.9
2014-Dec-11 07:48N 34°00' W 061°08'0 0.0 22.9
2014-Dec-11 07:38N 34°00' W 061°08'0 0.0 22.9
2014-Dec-11 06:16N 34°00' W 061°08'1 7.0 22.9
2014-Dec-11 06:10N 34°00' W 061°09'2 1.1 22.9
2014-Dec-11 04:32N 33°59' W 061°10'4 2.8 22.9
2014-Dec-11 02:58N 33°56' W 061°15'0 0.1 22.9
2014-Dec-11 02:08N 33°56' W 061°15'0 0.7 22.8
2014-Dec-11 02:04N 33°56' W 061°15'2 2.3 22.8
2014-Dec-11 01:24N 33°55' W 061°16'0 0.0 22.9
2014-Dec-11 01:21N 33°55' W 061°16'2 2.4 22.9
2014-Dec-11 00:32N 33°55' W 061°18'0 4.7 22.9
2014-Dec-11 00:27N 33°55' W 061°18'2 2.9 22.9
2014-Dec-10 23:46N 33°54' W 061°20'0 0.0 22.9
2014-Dec-10 23:43N 33°54' W 061°20'341.8 22.9
2014-Dec-10 23:39N 33°53' W 061°23'0 0.2 22.9
2014-Dec-10 22:09N 33°53' W 061°23'0 0.0 22.9
2014-Dec-10 22:07N 33°53' W 061°23'2 2.2 22.9
2014-Dec-10 21:19N 33°52' W 061°25'0 3.1 22.9
2014-Dec-10 21:15N 33°52' W 061°24'2 3.3 22.9
2014-Dec-10 20:35N 33°52' W 061°27'164.4 22.9
2014-Dec-10 20:34N 33°52' W 061°28'0 0.0 22.9
2014-Dec-10 19:38N 33°52' W 061°28'741.3 22.9
2014-Dec-10 19:28N 33°52' W 061°37'0 0.0 22.9
2014-Dec-10 18:52N 33°52' W 061°37'0 0.0 22.9
2014-Dec-10 17:53N 33°52' W 061°37'0 0.0 22.9
2014-Dec-10 17:52N 33°52' W 061°37'0 0.0 22.9
2014-Dec-10 16:10N 33°52' W 061°37'1 3.3 22.9
2014-Dec-10 15:43N 33°52' W 061°38'1 1.3 22.9
2014-Dec-10 14:54N 33°52' W 061°40'8 9.7 22.9
2014-Dec-10 14:05N 33°54' W 061°49'0 0.0 22.9
2014-Dec-10 13:53N 33°54' W 061°49'1 0.5
2014-Dec-10 10:53N 33°55' W 061°50'332.8 23.3
2014-Dec-10 10:48N 33°56' W 061°53'0 0.0 23.3
2014-Dec-10 09:53N 33°56' W 061°53'0 3.6 23.3
2014-Dec-10 09:52N 33°56' W 061°53'2 3.0 23.3
2014-Dec-10 09:16N 33°57' W 061°55'315.4 23.4
2014-Dec-10 09:06N 33°58' W 061°58'0 0.0 23.4
2014-Dec-10 08:13N 33°58' W 061°58'0 5.3 23.4
2014-Dec-10 08:08N 33°59' W 061°58'0 2.4 23.4
2014-Dec-10 08:04N 33°59' W 061°58'4 2.4 23.4
2014-Dec-10 06:26N 34°01' W 062°02'431.8 23.4
2014-Dec-10 06:19N 34°03' W 062°05'0 0.0 23.4
2014-Dec-10 06:16N 34°03' W 062°05'0 0.0 23.4
2014-Dec-10 04:44N 34°03' W 062°05'4 2.0 23.5
2014-Dec-10 02:31N 34°06' W 062°09'114.3 23.5
2014-Dec-10 02:25N 34°08' W 062°10'2 1.1 23.5
2014-Dec-10 00:53N 34°09' W 062°12'1 2.0 23.5
2014-Dec-10 00:15N 34°10' W 062°13'0 0.0 23.5
2014-Dec-10 00:04N 34°10' W 062°13'0 3.9 23.5
2014-Dec-10 00:02N 34°09' W 062°13'225.2 23.5
2014-Dec-09 23:57N 34°11' W 062°15'0 0.0 23.5
2014-Dec-09 23:10N 34°11' W 062°15'2 2.6 23.5
2014-Dec-09 22:34N 34°12' W 062°16'0 0.0 23.5
2014-Dec-09 21:32N 34°12' W 062°16'0 0.6 23.5
2014-Dec-09 21:26N 34°12' W 062°16'1 1.7 23.5
2014-Dec-09 21:00N 34°13' W 062°16'1 1.1 23.5
2014-Dec-09 19:52N 34°14' W 062°17'1 5.9 23.5
2014-Dec-09 19:39N 34°15' W 062°17'0 0.0 23.5
2014-Dec-09 19:19N 34°15' W 062°17'0 5.6 23.5
2014-Dec-09 19:16N 34°15' W 062°17'1 1.1 23.5
2014-Dec-09 18:08N 34°15' W 062°18'0 0.0 23.5
2014-Dec-09 18:02N 34°15' W 062°18'2 1.4 23.5
2014-Dec-09 16:22N 34°17' W 062°19'1 0.8 23.5
2014-Dec-09 15:14N 34°18' W 062°20'1 1.3 23.5
2014-Dec-09 14:23N 34°19' W 062°20'219.6 23.4
2014-Dec-09 14:16N 34°21' W 062°20'1 0.7 23.4
2014-Dec-09 12:38N 34°23' W 062°20'0 0.0 23.4
2014-Dec-09 11:21N 34°23' W 062°20'1 1.2 23.3
2014-Dec-09 10:23N 34°24' W 062°20'1 3.1 23.2
2014-Dec-09 10:08N 34°24' W 062°19'0 0.0 23.1
2014-Dec-09 10:04N 34°24' W 062°19'112.4 23.1
2014-Dec-09 09:59N 34°25' W 062°20'0 0.0 23.1
2014-Dec-09 09:39N 34°25' W 062°20'119.3 23.0
2014-Dec-09 09:35N 34°26' W 062°20'0 0.0 23.0
2014-Dec-09 09:32N 34°26' W 062°20'1 0.5 23.0
2014-Dec-09 08:23N 34°27' W 062°20'1 9.3 22.8
2014-Dec-09 08:19N 34°27' W 062°20'0 0.0 22.8
2014-Dec-09 08:16N 34°27' W 062°20'0 6.9 22.8
2014-Dec-09 08:12N 34°27' W 062°20'418.9 22.8
2014-Dec-09 07:59N 34°31' W 062°20'0 0.2 22.8
2014-Dec-09 06:38N 34°31' W 062°20'0 0.0 22.9
2014-Dec-09 06:28N 34°31' W 062°20'0 0.0 22.9
2014-Dec-09 04:53N 34°31' W 062°20'2 1.0 22.8
2014-Dec-09 02:51N 34°33' W 062°19'112.7 22.6
2014-Dec-09 02:46N 34°34' W 062°20'0 0.0 22.6
2014-Dec-09 02:06N 34°34' W 062°20'0 0.0 22.7
2014-Dec-09 02:02N 34°34' W 062°20'1 0.9 22.7
2014-Dec-09 01:14N 34°35' W 062°19'1 7.1 22.8
2014-Dec-09 01:04N 34°36' W 062°18'2 2.2
2014-Dec-09 00:23N 34°37' W 062°17'1 0.5 22.8
2014-Dec-08 21:37N 34°39' W 062°17'0 0.0 22.9
2014-Dec-08 21:28N 34°39' W 062°17'0 6.9 22.9
2014-Dec-08 21:24N 34°39' W 062°16'233.6 22.9
2014-Dec-08 21:21N 34°40' W 062°15'0 0.0 22.9
2014-Dec-08 20:03N 34°40' W 062°15'210.8 22.9
2014-Dec-08 19:52N 34°42' W 062°14'0 0.0 22.9
2014-Dec-08 19:34N 34°42' W 062°14'0 0.0 22.9
2014-Dec-08 18:20N 34°42' W 062°14'0 4.2 22.9
2014-Dec-08 18:14N 34°42' W 062°13'4 2.6 22.9
2014-Dec-08 16:32N 34°45' W 062°10'0 0.0 22.9
2014-Dec-08 15:34N 34°45' W 062°10'0 0.1 22.9
2014-Dec-08 14:46N 34°45' W 062°10'211.6 22.9
2014-Dec-08 14:38N 34°47' W 062°10'0 0.0 22.9
2014-Dec-08 13:52N 34°47' W 062°10'2 1.8 22.9
2014-Dec-08 13:00N 34°48' W 062°09'2 2.6 22.9
2014-Dec-08 12:06N 34°49' W 062°07'0 0.0 22.9
2014-Dec-08 11:43N 34°49' W 062°07'1 0.7 22.9
2014-Dec-08 10:52N 34°50' W 062°07'1 1.5 22.8
2014-Dec-08 10:18N 34°50' W 062°06'0 1.6 22.8
2014-Dec-08 10:15N 34°51' W 062°06'0 6.5 22.8
2014-Dec-08 10:11N 34°51' W 062°06'0 0.0 22.8
2014-Dec-08 10:07N 34°51' W 062°06'0 2.6 22.8
2014-Dec-08 10:00N 34°51' W 062°06'114.0 22.8
2014-Dec-08 09:56N 34°52' W 062°05'0 0.0 22.8
2014-Dec-08 09:14N 34°52' W 062°05'1 1.7 22.8
2014-Dec-08 08:33N 34°52' W 062°04'1 5.9 22.8
2014-Dec-08 08:23N 34°53' W 062°03'177.8 22.8
2014-Dec-08 08:22N 34°54' W 062°02'0 0.0 22.8
2014-Dec-08 06:49N 34°54' W 062°02'319.7 22.8
2014-Dec-08 06:41N 34°56' W 061°60'0 0.0 22.8
2014-Dec-08 06:39N 34°56' W 061°60'   22.8

Dump ship's entire track history